sensor_id;sensor_type;location;lat;lon;timestamp;P1;durP1;ratioP1;P2;durP2;ratioP2
76640;SDS011;65538;50.798;6.064;2023-11-22T00:00:57;19.43;;;10.40;;
76640;SDS011;65538;50.798;6.064;2023-11-22T00:03:22;22.17;;;11.73;;
76640;SDS011;65538;50.798;6.064;2023-11-22T00:05:49;20.83;;;11.80;;
76640;SDS011;65538;50.798;6.064;2023-11-22T00:08:14;21.48;;;10.85;;
76640;SDS011;65538;50.798;6.064;2023-11-22T00:10:39;19.40;;;10.17;;
76640;SDS011;65538;50.798;6.064;2023-11-22T00:13:05;20.57;;;11.00;;
76640;SDS011;65538;50.798;6.064;2023-11-22T00:15:30;20.63;;;10.25;;
76640;SDS011;65538;50.798;6.064;2023-11-22T00:17:55;20.40;;;10.87;;
76640;SDS011;65538;50.798;6.064;2023-11-22T00:20:22;22.60;;;10.93;;
76640;SDS011;65538;50.798;6.064;2023-11-22T00:22:48;24.42;;;11.57;;
76640;SDS011;65538;50.798;6.064;2023-11-22T00:25:13;24.93;;;11.93;;
76640;SDS011;65538;50.798;6.064;2023-11-22T00:27:38;26.77;;;10.37;;
76640;SDS011;65538;50.798;6.064;2023-11-22T00:30:04;19.87;;;10.43;;
76640;SDS011;65538;50.798;6.064;2023-11-22T00:32:29;21.98;;;10.68;;
76640;SDS011;65538;50.798;6.064;2023-11-22T00:34:57;23.20;;;10.60;;
76640;SDS011;65538;50.798;6.064;2023-11-22T00:37:22;22.87;;;10.77;;
76640;SDS011;65538;50.798;6.064;2023-11-22T00:39:48;20.13;;;10.50;;
76640;SDS011;65538;50.798;6.064;2023-11-22T00:42:13;21.87;;;11.47;;
76640;SDS011;65538;50.798;6.064;2023-11-22T00:44:41;22.13;;;12.57;;
76640;SDS011;65538;50.798;6.064;2023-11-22T00:47:06;27.08;;;11.85;;
76640;SDS011;65538;50.798;6.064;2023-11-22T00:49:31;22.93;;;11.60;;
76640;SDS011;65538;50.798;6.064;2023-11-22T00:51:57;20.80;;;11.30;;
76640;SDS011;65538;50.798;6.064;2023-11-22T00:54:23;21.92;;;11.80;;
76640;SDS011;65538;50.798;6.064;2023-11-22T00:56:48;24.90;;;12.73;;
76640;SDS011;65538;50.798;6.064;2023-11-22T00:59:13;24.33;;;12.90;;
76640;SDS011;65538;50.798;6.064;2023-11-22T01:01:41;22.17;;;12.25;;
76640;SDS011;65538;50.798;6.064;2023-11-22T01:04:06;24.87;;;13.20;;
76640;SDS011;65538;50.798;6.064;2023-11-22T01:06:32;26.13;;;12.23;;
76640;SDS011;65538;50.798;6.064;2023-11-22T01:08:57;24.93;;;12.73;;
76640;SDS011;65538;50.798;6.064;2023-11-22T01:11:22;24.87;;;12.20;;
76640;SDS011;65538;50.798;6.064;2023-11-22T01:13:48;25.30;;;13.07;;
76640;SDS011;65538;50.798;6.064;2023-11-22T01:16:13;24.83;;;12.30;;
76640;SDS011;65538;50.798;6.064;2023-11-22T01:18:38;23.10;;;12.03;;
76640;SDS011;65538;50.798;6.064;2023-11-22T01:21:04;26.25;;;13.15;;
76640;SDS011;65538;50.798;6.064;2023-11-22T01:23:30;30.30;;;13.52;;
76640;SDS011;65538;50.798;6.064;2023-11-22T01:25:57;26.38;;;13.23;;
76640;SDS011;65538;50.798;6.064;2023-11-22T01:28:22;28.85;;;13.75;;
76640;SDS011;65538;50.798;6.064;2023-11-22T01:30:47;28.67;;;15.03;;
76640;SDS011;65538;50.798;6.064;2023-11-22T01:33:14;30.42;;;14.27;;
76640;SDS011;65538;50.798;6.064;2023-11-22T01:35:39;29.00;;;14.50;;
76640;SDS011;65538;50.798;6.064;2023-11-22T01:38:04;28.73;;;13.63;;
76640;SDS011;65538;50.798;6.064;2023-11-22T01:40:30;29.05;;;15.23;;
76640;SDS011;65538;50.798;6.064;2023-11-22T01:42:55;36.20;;;16.13;;
76640;SDS011;65538;50.798;6.064;2023-11-22T01:45:21;29.50;;;14.30;;
76640;SDS011;65538;50.798;6.064;2023-11-22T01:47:46;34.27;;;14.67;;
76640;SDS011;65538;50.798;6.064;2023-11-22T01:50:12;31.70;;;15.93;;
76640;SDS011;65538;50.798;6.064;2023-11-22T01:52:39;33.20;;;15.43;;
76640;SDS011;65538;50.798;6.064;2023-11-22T01:55:05;32.30;;;14.83;;
76640;SDS011;65538;50.798;6.064;2023-11-22T01:57:31;33.13;;;15.88;;
76640;SDS011;65538;50.798;6.064;2023-11-22T01:59:57;29.95;;;14.57;;
76640;SDS011;65538;50.798;6.064;2023-11-22T02:02:23;31.57;;;15.73;;
76640;SDS011;65538;50.798;6.064;2023-11-22T02:04:48;36.40;;;15.93;;
76640;SDS011;65538;50.798;6.064;2023-11-22T02:07:13;33.13;;;15.07;;
76640;SDS011;65538;50.798;6.064;2023-11-22T02:09:38;34.07;;;16.33;;
76640;SDS011;65538;50.798;6.064;2023-11-22T02:12:03;33.80;;;14.27;;
76640;SDS011;65538;50.798;6.064;2023-11-22T02:14:29;33.07;;;14.53;;
76640;SDS011;65538;50.798;6.064;2023-11-22T02:16:54;34.80;;;16.10;;
76640;SDS011;65538;50.798;6.064;2023-11-22T02:19:19;36.40;;;16.50;;
76640;SDS011;65538;50.798;6.064;2023-11-22T02:21:44;37.05;;;16.88;;
76640;SDS011;65538;50.798;6.064;2023-11-22T02:24:10;37.92;;;16.45;;
76640;SDS011;65538;50.798;6.064;2023-11-22T02:26:35;35.13;;;17.00;;
76640;SDS011;65538;50.798;6.064;2023-11-22T02:29:01;39.45;;;17.83;;
76640;SDS011;65538;50.798;6.064;2023-11-22T02:31:29;32.72;;;15.77;;
76640;SDS011;65538;50.798;6.064;2023-11-22T02:33:54;34.03;;;15.97;;
76640;SDS011;65538;50.798;6.064;2023-11-22T02:36:20;31.67;;;15.50;;
76640;SDS011;65538;50.798;6.064;2023-11-22T02:38:45;33.63;;;16.73;;
76640;SDS011;65538;50.798;6.064;2023-11-22T02:41:12;32.30;;;17.08;;
76640;SDS011;65538;50.798;6.064;2023-11-22T02:43:38;33.30;;;15.20;;
76640;SDS011;65538;50.798;6.064;2023-11-22T02:46:03;36.20;;;15.57;;
76640;SDS011;65538;50.798;6.064;2023-11-22T02:48:29;31.70;;;14.70;;
76640;SDS011;65538;50.798;6.064;2023-11-22T02:50:54;33.20;;;15.23;;
76640;SDS011;65538;50.798;6.064;2023-11-22T02:53:20;31.48;;;14.63;;
76640;SDS011;65538;50.798;6.064;2023-11-22T02:55:45;29.57;;;14.07;;
76640;SDS011;65538;50.798;6.064;2023-11-22T02:58:10;31.80;;;13.83;;
76640;SDS011;65538;50.798;6.064;2023-11-22T03:00:37;29.10;;;14.25;;
76640;SDS011;65538;50.798;6.064;2023-11-22T03:03:03;31.25;;;13.95;;
76640;SDS011;65538;50.798;6.064;2023-11-22T03:05:29;28.20;;;15.63;;
76640;SDS011;65538;50.798;6.064;2023-11-22T03:07:54;30.90;;;15.67;;
76640;SDS011;65538;50.798;6.064;2023-11-22T03:10:20;30.80;;;14.73;;
76640;SDS011;65538;50.798;6.064;2023-11-22T03:12:45;31.75;;;14.85;;
76640;SDS011;65538;50.798;6.064;2023-11-22T03:15:11;35.78;;;16.20;;
76640;SDS011;65538;50.798;6.064;2023-11-22T03:17:36;34.92;;;16.52;;
76640;SDS011;65538;50.798;6.064;2023-11-22T03:20:03;37.97;;;16.20;;
76640;SDS011;65538;50.798;6.064;2023-11-22T03:22:33;35.15;;;15.73;;
76640;SDS011;65538;50.798;6.064;2023-11-22T03:25:01;32.55;;;14.60;;
76640;SDS011;65538;50.798;6.064;2023-11-22T03:27:27;31.95;;;14.70;;
76640;SDS011;65538;50.798;6.064;2023-11-22T03:29:52;37.60;;;15.63;;
76640;SDS011;65538;50.798;6.064;2023-11-22T03:32:17;39.60;;;16.83;;
76640;SDS011;65538;50.798;6.064;2023-11-22T03:34:43;37.37;;;16.27;;
76640;SDS011;65538;50.798;6.064;2023-11-22T03:37:08;37.37;;;16.47;;
76640;SDS011;65538;50.798;6.064;2023-11-22T03:39:33;34.73;;;16.13;;
76640;SDS011;65538;50.798;6.064;2023-11-22T03:41:58;40.83;;;16.73;;
76640;SDS011;65538;50.798;6.064;2023-11-22T03:44:23;36.60;;;15.90;;
76640;SDS011;65538;50.798;6.064;2023-11-22T03:46:49;33.60;;;14.33;;
76640;SDS011;65538;50.798;6.064;2023-11-22T03:49:14;36.63;;;15.20;;
76640;SDS011;65538;50.798;6.064;2023-11-22T03:51:40;36.37;;;15.30;;
76640;SDS011;65538;50.798;6.064;2023-11-22T03:54:06;37.22;;;15.52;;
76640;SDS011;65538;50.798;6.064;2023-11-22T03:56:31;34.93;;;15.23;;
76640;SDS011;65538;50.798;6.064;2023-11-22T03:58:56;32.40;;;15.07;;
76640;SDS011;65538;50.798;6.064;2023-11-22T04:01:21;33.87;;;15.37;;
76640;SDS011;65538;50.798;6.064;2023-11-22T04:03:47;32.25;;;14.50;;
76640;SDS011;65538;50.798;6.064;2023-11-22T04:08:45;30.60;;;12.80;;
76640;SDS011;65538;50.798;6.064;2023-11-22T04:11:11;31.98;;;14.82;;
76640;SDS011;65538;50.798;6.064;2023-11-22T04:13:36;32.78;;;15.35;;
76640;SDS011;65538;50.798;6.064;2023-11-22T04:16:02;30.67;;;14.10;;
76640;SDS011;65538;50.798;6.064;2023-11-22T04:18:27;27.70;;;13.20;;
76640;SDS011;65538;50.798;6.064;2023-11-22T04:20:52;30.40;;;13.47;;
76640;SDS011;65538;50.798;6.064;2023-11-22T04:23:17;29.87;;;13.63;;
76640;SDS011;65538;50.798;6.064;2023-11-22T04:25:42;29.17;;;13.77;;
76640;SDS011;65538;50.798;6.064;2023-11-22T04:28:08;28.80;;;13.30;;
76640;SDS011;65538;50.798;6.064;2023-11-22T04:30:37;34.13;;;12.57;;
76640;SDS011;65538;50.798;6.064;2023-11-22T04:33:02;34.60;;;14.40;;
76640;SDS011;65538;50.798;6.064;2023-11-22T04:35:27;30.13;;;14.40;;
76640;SDS011;65538;50.798;6.064;2023-11-22T04:37:53;34.00;;;15.20;;
76640;SDS011;65538;50.798;6.064;2023-11-22T04:40:20;32.92;;;15.05;;
76640;SDS011;65538;50.798;6.064;2023-11-22T04:42:45;29.90;;;13.53;;
76640;SDS011;65538;50.798;6.064;2023-11-22T04:45:10;34.93;;;15.23;;
76640;SDS011;65538;50.798;6.064;2023-11-22T04:47:35;31.87;;;14.80;;
76640;SDS011;65538;50.798;6.064;2023-11-22T04:50:01;32.53;;;15.40;;
76640;SDS011;65538;50.798;6.064;2023-11-22T04:52:26;36.50;;;15.98;;
76640;SDS011;65538;50.798;6.064;2023-11-22T04:54:51;27.97;;;13.80;;
76640;SDS011;65538;50.798;6.064;2023-11-22T04:57:16;32.77;;;15.43;;
76640;SDS011;65538;50.798;6.064;2023-11-22T04:59:41;30.43;;;15.03;;
76640;SDS011;65538;50.798;6.064;2023-11-22T05:02:07;33.38;;;14.88;;
76640;SDS011;65538;50.798;6.064;2023-11-22T05:04:33;29.88;;;14.65;;
76640;SDS011;65538;50.798;6.064;2023-11-22T05:06:58;33.40;;;14.85;;
76640;SDS011;65538;50.798;6.064;2023-11-22T05:09:23;28.47;;;13.23;;
76640;SDS011;65538;50.798;6.064;2023-11-22T05:11:48;27.07;;;13.70;;
76640;SDS011;65538;50.798;6.064;2023-11-22T05:14:14;29.00;;;13.47;;
76640;SDS011;65538;50.798;6.064;2023-11-22T05:16:39;29.57;;;13.47;;
76640;SDS011;65538;50.798;6.064;2023-11-22T05:19:04;27.63;;;13.30;;
76640;SDS011;65538;50.798;6.064;2023-11-22T05:21:30;33.08;;;14.00;;
76640;SDS011;65538;50.798;6.064;2023-11-22T05:23:55;30.37;;;14.47;;
76640;SDS011;65538;50.798;6.064;2023-11-22T05:26:21;27.47;;;13.57;;
76640;SDS011;65538;50.798;6.064;2023-11-22T05:28:47;29.42;;;13.63;;
76640;SDS011;65538;50.798;6.064;2023-11-22T05:31:13;31.58;;;14.45;;
76640;SDS011;65538;50.798;6.064;2023-11-22T05:33:38;29.42;;;13.50;;
76640;SDS011;65538;50.798;6.064;2023-11-22T05:36:03;31.13;;;13.77;;
76640;SDS011;65538;50.798;6.064;2023-11-22T05:38:28;33.53;;;14.80;;
76640;SDS011;65538;50.798;6.064;2023-11-22T05:40:53;32.42;;;14.02;;
76640;SDS011;65538;50.798;6.064;2023-11-22T05:43:19;29.58;;;13.85;;
76640;SDS011;65538;50.798;6.064;2023-11-22T05:45:50;31.10;;;14.23;;
76640;SDS011;65538;50.798;6.064;2023-11-22T05:48:15;29.30;;;12.73;;
76640;SDS011;65538;50.798;6.064;2023-11-22T05:50:40;27.43;;;13.70;;
76640;SDS011;65538;50.798;6.064;2023-11-22T05:53:06;30.77;;;12.90;;
76640;SDS011;65538;50.798;6.064;2023-11-22T05:55:31;26.50;;;12.40;;
76640;SDS011;65538;50.798;6.064;2023-11-22T05:57:57;27.42;;;12.25;;
76640;SDS011;65538;50.798;6.064;2023-11-22T06:00:22;28.23;;;13.50;;
76640;SDS011;65538;50.798;6.064;2023-11-22T06:02:47;29.93;;;13.80;;
76640;SDS011;65538;50.798;6.064;2023-11-22T06:05:12;30.23;;;13.93;;
76640;SDS011;65538;50.798;6.064;2023-11-22T06:07:37;31.77;;;13.70;;
76640;SDS011;65538;50.798;6.064;2023-11-22T06:10:03;28.83;;;13.43;;
76640;SDS011;65538;50.798;6.064;2023-11-22T06:12:28;31.40;;;14.23;;
76640;SDS011;65538;50.798;6.064;2023-11-22T06:14:53;39.83;;;15.43;;
76640;SDS011;65538;50.798;6.064;2023-11-22T06:17:19;32.97;;;14.60;;
76640;SDS011;65538;50.798;6.064;2023-11-22T06:19:44;33.70;;;14.60;;
76640;SDS011;65538;50.798;6.064;2023-11-22T06:22:09;32.63;;;14.80;;
76640;SDS011;65538;50.798;6.064;2023-11-22T06:24:34;36.77;;;15.17;;
76640;SDS011;65538;50.798;6.064;2023-11-22T06:27:01;33.45;;;14.13;;
76640;SDS011;65538;50.798;6.064;2023-11-22T06:29:26;35.17;;;15.45;;
76640;SDS011;65538;50.798;6.064;2023-11-22T06:31:51;35.67;;;14.77;;
76640;SDS011;65538;50.798;6.064;2023-11-22T06:34:17;35.10;;;15.50;;
76640;SDS011;65538;50.798;6.064;2023-11-22T06:36:42;42.63;;;16.43;;
76640;SDS011;65538;50.798;6.064;2023-11-22T06:39:08;40.33;;;17.17;;
76640;SDS011;65538;50.798;6.064;2023-11-22T06:41:34;36.92;;;16.08;;
76640;SDS011;65538;50.798;6.064;2023-11-22T06:44:00;37.50;;;14.67;;
76640;SDS011;65538;50.798;6.064;2023-11-22T06:46:25;38.60;;;16.23;;
76640;SDS011;65538;50.798;6.064;2023-11-22T06:48:50;39.03;;;15.87;;
76640;SDS011;65538;50.798;6.064;2023-11-22T06:51:15;40.90;;;17.93;;
76640;SDS011;65538;50.798;6.064;2023-11-22T06:53:41;38.92;;;15.90;;
76640;SDS011;65538;50.798;6.064;2023-11-22T06:56:06;39.10;;;17.07;;
76640;SDS011;65538;50.798;6.064;2023-11-22T06:58:31;38.97;;;16.47;;
76640;SDS011;65538;50.798;6.064;2023-11-22T07:00:56;40.83;;;15.27;;
76640;SDS011;65538;50.798;6.064;2023-11-22T07:03:21;37.00;;;15.65;;
76640;SDS011;65538;50.798;6.064;2023-11-22T07:05:47;30.83;;;13.87;;
76640;SDS011;65538;50.798;6.064;2023-11-22T07:08:12;31.60;;;14.33;;
76640;SDS011;65538;50.798;6.064;2023-11-22T07:10:37;43.03;;;15.27;;
76640;SDS011;65538;50.798;6.064;2023-11-22T07:13:03;32.22;;;14.05;;
76640;SDS011;65538;50.798;6.064;2023-11-22T07:15:28;35.73;;;14.97;;
76640;SDS011;65538;50.798;6.064;2023-11-22T07:17:53;34.77;;;15.10;;
76640;SDS011;65538;50.798;6.064;2023-11-22T07:20:19;32.65;;;14.45;;
76640;SDS011;65538;50.798;6.064;2023-11-22T07:22:44;35.17;;;15.10;;
76640;SDS011;65538;50.798;6.064;2023-11-22T07:25:10;40.67;;;17.07;;
76640;SDS011;65538;50.798;6.064;2023-11-22T07:27:46;38.80;;;15.73;;
76640;SDS011;65538;50.798;6.064;2023-11-22T07:30:12;36.05;;;15.80;;
76640;SDS011;65538;50.798;6.064;2023-11-22T07:32:41;36.67;;;14.95;;
76640;SDS011;65538;50.798;6.064;2023-11-22T07:35:07;33.85;;;14.65;;
76640;SDS011;65538;50.798;6.064;2023-11-22T07:37:33;36.30;;;15.55;;
76640;SDS011;65538;50.798;6.064;2023-11-22T07:39:59;37.15;;;15.15;;
76640;SDS011;65538;50.798;6.064;2023-11-22T07:42:25;33.20;;;15.02;;
76640;SDS011;65538;50.798;6.064;2023-11-22T07:44:51;32.20;;;14.93;;
76640;SDS011;65538;50.798;6.064;2023-11-22T07:47:20;35.38;;;14.70;;
76640;SDS011;65538;50.798;6.064;2023-11-22T07:49:46;31.83;;;15.37;;
76640;SDS011;65538;50.798;6.064;2023-11-22T07:52:11;32.22;;;13.88;;
76640;SDS011;65538;50.798;6.064;2023-11-22T07:54:38;31.65;;;15.02;;
76640;SDS011;65538;50.798;6.064;2023-11-22T07:57:04;27.87;;;12.37;;
76640;SDS011;65538;50.798;6.064;2023-11-22T07:59:29;34.17;;;15.43;;
76640;SDS011;65538;50.798;6.064;2023-11-22T08:01:55;31.55;;;13.40;;
76640;SDS011;65538;50.798;6.064;2023-11-22T08:04:22;31.23;;;13.43;;
76640;SDS011;65538;50.798;6.064;2023-11-22T08:06:48;28.88;;;12.82;;
76640;SDS011;65538;50.798;6.064;2023-11-22T08:09:14;30.65;;;13.35;;
76640;SDS011;65538;50.798;6.064;2023-11-22T08:11:41;28.85;;;13.40;;
76640;SDS011;65538;50.798;6.064;2023-11-22T08:14:06;29.20;;;12.97;;
76640;SDS011;65538;50.798;6.064;2023-11-22T08:16:32;32.25;;;15.05;;
76640;SDS011;65538;50.798;6.064;2023-11-22T08:19:03;31.85;;;14.35;;
76640;SDS011;65538;50.798;6.064;2023-11-22T08:21:28;35.90;;;15.67;;
76640;SDS011;65538;50.798;6.064;2023-11-22T08:23:53;33.65;;;15.00;;
76640;SDS011;65538;50.798;6.064;2023-11-22T08:26:19;30.60;;;14.10;;
76640;SDS011;65538;50.798;6.064;2023-11-22T08:28:44;31.40;;;14.07;;
76640;SDS011;65538;50.798;6.064;2023-11-22T08:31:09;35.57;;;15.47;;
76640;SDS011;65538;50.798;6.064;2023-11-22T08:33:34;31.87;;;14.23;;
76640;SDS011;65538;50.798;6.064;2023-11-22T08:36:00;31.38;;;14.18;;
76640;SDS011;65538;50.798;6.064;2023-11-22T08:38:26;30.50;;;15.07;;
76640;SDS011;65538;50.798;6.064;2023-11-22T08:40:51;32.92;;;15.25;;
76640;SDS011;65538;50.798;6.064;2023-11-22T08:43:16;33.28;;;14.80;;
76640;SDS011;65538;50.798;6.064;2023-11-22T08:45:42;30.77;;;13.33;;
76640;SDS011;65538;50.798;6.064;2023-11-22T08:48:09;27.92;;;12.43;;
76640;SDS011;65538;50.798;6.064;2023-11-22T08:50:34;26.95;;;13.30;;
76640;SDS011;65538;50.798;6.064;2023-11-22T08:52:59;26.30;;;12.63;;
76640;SDS011;65538;50.798;6.064;2023-11-22T08:55:25;25.42;;;11.98;;
76640;SDS011;65538;50.798;6.064;2023-11-22T08:57:51;24.67;;;12.32;;
76640;SDS011;65538;50.798;6.064;2023-11-22T09:00:16;24.92;;;12.10;;
76640;SDS011;65538;50.798;6.064;2023-11-22T09:02:47;24.95;;;12.23;;
76640;SDS011;65538;50.798;6.064;2023-11-22T09:05:13;22.45;;;10.10;;
76640;SDS011;65538;50.798;6.064;2023-11-22T09:07:39;22.38;;;10.70;;
76640;SDS011;65538;50.798;6.064;2023-11-22T09:10:04;20.02;;;10.20;;
76640;SDS011;65538;50.798;6.064;2023-11-22T09:12:39;22.55;;;11.15;;
76640;SDS011;65538;50.798;6.064;2023-11-22T09:15:06;24.05;;;12.00;;
76640;SDS011;65538;50.798;6.064;2023-11-22T09:17:34;23.70;;;11.57;;
76640;SDS011;65538;50.798;6.064;2023-11-22T09:20:00;24.08;;;11.63;;
76640;SDS011;65538;50.798;6.064;2023-11-22T09:22:27;23.67;;;11.52;;
76640;SDS011;65538;50.798;6.064;2023-11-22T09:24:52;23.33;;;10.83;;
76640;SDS011;65538;50.798;6.064;2023-11-22T09:27:17;27.40;;;12.60;;
76640;SDS011;65538;50.798;6.064;2023-11-22T09:29:45;23.63;;;11.85;;
76640;SDS011;65538;50.798;6.064;2023-11-22T09:32:11;22.20;;;11.13;;
76640;SDS011;65538;50.798;6.064;2023-11-22T09:34:38;23.75;;;11.23;;
76640;SDS011;65538;50.798;6.064;2023-11-22T09:37:03;23.42;;;11.63;;
76640;SDS011;65538;50.798;6.064;2023-11-22T09:39:28;24.95;;;11.55;;
76640;SDS011;65538;50.798;6.064;2023-11-22T09:41:54;22.90;;;11.00;;
76640;SDS011;65538;50.798;6.064;2023-11-22T09:44:20;23.60;;;11.98;;
76640;SDS011;65538;50.798;6.064;2023-11-22T09:46:46;26.33;;;12.65;;
76640;SDS011;65538;50.798;6.064;2023-11-22T09:49:14;24.80;;;11.93;;
76640;SDS011;65538;50.798;6.064;2023-11-22T09:51:40;26.48;;;12.90;;
76640;SDS011;65538;50.798;6.064;2023-11-22T09:54:06;27.67;;;12.60;;
76640;SDS011;65538;50.798;6.064;2023-11-22T09:56:34;28.35;;;12.13;;
76640;SDS011;65538;50.798;6.064;2023-11-22T09:59:01;26.50;;;11.52;;
76640;SDS011;65538;50.798;6.064;2023-11-22T10:01:28;24.70;;;11.95;;
76640;SDS011;65538;50.798;6.064;2023-11-22T10:03:54;23.97;;;12.80;;
76640;SDS011;65538;50.798;6.064;2023-11-22T10:06:19;26.38;;;12.88;;
76640;SDS011;65538;50.798;6.064;2023-11-22T10:08:45;22.35;;;11.82;;
76640;SDS011;65538;50.798;6.064;2023-11-22T10:11:16;25.20;;;11.52;;
76640;SDS011;65538;50.798;6.064;2023-11-22T10:13:48;21.52;;;11.10;;
76640;SDS011;65538;50.798;6.064;2023-11-22T10:16:14;27.20;;;11.48;;
76640;SDS011;65538;50.798;6.064;2023-11-22T10:18:43;26.83;;;12.05;;
76640;SDS011;65538;50.798;6.064;2023-11-22T10:21:19;29.52;;;14.00;;
76640;SDS011;65538;50.798;6.064;2023-11-22T10:23:45;25.52;;;11.75;;
76640;SDS011;65538;50.798;6.064;2023-11-22T10:26:12;26.60;;;12.30;;
76640;SDS011;65538;50.798;6.064;2023-11-22T10:28:38;23.50;;;11.32;;
76640;SDS011;65538;50.798;6.064;2023-11-22T10:31:04;25.83;;;10.90;;
76640;SDS011;65538;50.798;6.064;2023-11-22T10:33:31;20.80;;;10.48;;
76640;SDS011;65538;50.798;6.064;2023-11-22T10:35:58;21.63;;;11.38;;
76640;SDS011;65538;50.798;6.064;2023-11-22T10:38:23;24.75;;;11.00;;
76640;SDS011;65538;50.798;6.064;2023-11-22T10:40:48;22.55;;;11.00;;
76640;SDS011;65538;50.798;6.064;2023-11-22T10:43:17;25.90;;;11.48;;
76640;SDS011;65538;50.798;6.064;2023-11-22T10:45:43;26.65;;;11.27;;
76640;SDS011;65538;50.798;6.064;2023-11-22T10:48:16;23.73;;;11.48;;
76640;SDS011;65538;50.798;6.064;2023-11-22T10:50:42;26.35;;;11.00;;
76640;SDS011;65538;50.798;6.064;2023-11-22T10:53:09;22.77;;;10.35;;
76640;SDS011;65538;50.798;6.064;2023-11-22T10:55:38;24.92;;;10.85;;
76640;SDS011;65538;50.798;6.064;2023-11-22T10:58:06;22.92;;;10.98;;
76640;SDS011;65538;50.798;6.064;2023-11-22T11:00:33;21.50;;;10.10;;
76640;SDS011;65538;50.798;6.064;2023-11-22T11:03:01;20.60;;;10.00;;
76640;SDS011;65538;50.798;6.064;2023-11-22T11:07:57;22.83;;;10.13;;
76640;SDS011;65538;50.798;6.064;2023-11-22T11:10:24;23.05;;;10.02;;
76640;SDS011;65538;50.798;6.064;2023-11-22T11:12:49;22.13;;;10.20;;
76640;SDS011;65538;50.798;6.064;2023-11-22T11:15:15;22.80;;;9.38;;
76640;SDS011;65538;50.798;6.064;2023-11-22T11:17:42;17.67;;;9.00;;
76640;SDS011;65538;50.798;6.064;2023-11-22T11:22:50;19.65;;;9.52;;
76640;SDS011;65538;50.798;6.064;2023-11-22T11:25:17;16.42;;;8.70;;
76640;SDS011;65538;50.798;6.064;2023-11-22T11:27:55;18.83;;;8.50;;
76640;SDS011;65538;50.798;6.064;2023-11-22T11:33:12;17.25;;;8.35;;
76640;SDS011;65538;50.798;6.064;2023-11-22T11:35:49;21.20;;;8.48;;
76640;SDS011;65538;50.798;6.064;2023-11-22T11:53:50;13.32;;;6.57;;
76640;SDS011;65538;50.798;6.064;2023-11-22T11:56:35;15.15;;;7.53;;
76640;SDS011;65538;50.798;6.064;2023-11-22T11:59:04;14.60;;;7.07;;
76640;SDS011;65538;50.798;6.064;2023-11-22T12:01:30;15.57;;;7.57;;
76640;SDS011;65538;50.798;6.064;2023-11-22T12:03:57;13.95;;;7.70;;
76640;SDS011;65538;50.798;6.064;2023-11-22T12:06:22;15.90;;;7.57;;
76640;SDS011;65538;50.798;6.064;2023-11-22T12:08:47;16.07;;;8.83;;
76640;SDS011;65538;50.798;6.064;2023-11-22T12:11:13;15.80;;;7.63;;
76640;SDS011;65538;50.798;6.064;2023-11-22T12:13:40;18.08;;;9.23;;
76640;SDS011;65538;50.798;6.064;2023-11-22T12:16:13;19.48;;;7.55;;
76640;SDS011;65538;50.798;6.064;2023-11-22T12:18:43;15.00;;;7.40;;
76640;SDS011;65538;50.798;6.064;2023-11-22T12:21:08;15.10;;;7.43;;
76640;SDS011;65538;50.798;6.064;2023-11-22T12:23:37;15.30;;;8.13;;
76640;SDS011;65538;50.798;6.064;2023-11-22T12:26:03;11.00;;;5.10;;
76640;SDS011;65538;50.798;6.064;2023-11-22T12:30:54;15.70;;;7.35;;
76640;SDS011;65538;50.798;6.064;2023-11-22T12:33:19;12.80;;;7.05;;
76640;SDS011;65538;50.798;6.064;2023-11-22T12:35:45;12.30;;;7.05;;
76640;SDS011;65538;50.798;6.064;2023-11-22T12:38:10;14.00;;;6.97;;
76640;SDS011;65538;50.798;6.064;2023-11-22T12:40:35;15.03;;;8.27;;
76640;SDS011;65538;50.798;6.064;2023-11-22T12:43:01;13.03;;;7.37;;
76640;SDS011;65538;50.798;6.064;2023-11-22T12:45:27;15.30;;;7.13;;
76640;SDS011;65538;50.798;6.064;2023-11-22T12:47:53;13.75;;;7.32;;
76640;SDS011;65538;50.798;6.064;2023-11-22T12:50:29;16.15;;;6.85;;
76640;SDS011;65538;50.798;6.064;2023-11-22T12:52:55;16.20;;;7.22;;
76640;SDS011;65538;50.798;6.064;2023-11-22T12:55:20;12.40;;;6.53;;
76640;SDS011;65538;50.798;6.064;2023-11-22T12:57:55;13.07;;;6.67;;
76640;SDS011;65538;50.798;6.064;2023-11-22T13:00:20;15.10;;;7.70;;
76640;SDS011;65538;50.798;6.064;2023-11-22T13:02:46;15.30;;;7.57;;
76640;SDS011;65538;50.798;6.064;2023-11-22T13:05:12;13.73;;;7.73;;
76640;SDS011;65538;50.798;6.064;2023-11-22T13:07:40;12.73;;;6.05;;
76640;SDS011;65538;50.798;6.064;2023-11-22T13:10:08;15.38;;;7.80;;
76640;SDS011;65538;50.798;6.064;2023-11-22T13:12:34;12.65;;;7.50;;
76640;SDS011;65538;50.798;6.064;2023-11-22T13:15:00;12.90;;;7.47;;
76640;SDS011;65538;50.798;6.064;2023-11-22T13:17:25;12.33;;;6.53;;
76640;SDS011;65538;50.798;6.064;2023-11-22T13:19:50;9.85;;;5.00;;
76640;SDS011;65538;50.798;6.064;2023-11-22T13:22:15;12.40;;;6.43;;
76640;SDS011;65538;50.798;6.064;2023-11-22T13:24:41;12.70;;;6.90;;
76640;SDS011;65538;50.798;6.064;2023-11-22T13:27:09;13.00;;;7.20;;
76640;SDS011;65538;50.798;6.064;2023-11-22T13:29:34;14.30;;;7.95;;
76640;SDS011;65538;50.798;6.064;2023-11-22T13:31:59;15.07;;;8.10;;
76640;SDS011;65538;50.798;6.064;2023-11-22T13:34:24;16.37;;;9.37;;
76640;SDS011;65538;50.798;6.064;2023-11-22T13:36:50;25.30;;;9.90;;
76640;SDS011;65538;50.798;6.064;2023-11-22T13:39:15;16.60;;;8.60;;
76640;SDS011;65538;50.798;6.064;2023-11-22T13:41:40;19.03;;;10.17;;
76640;SDS011;65538;50.798;6.064;2023-11-22T13:44:05;19.20;;;10.00;;
76640;SDS011;65538;50.798;6.064;2023-11-22T13:46:31;17.15;;;9.05;;
76640;SDS011;65538;50.798;6.064;2023-11-22T13:48:56;18.70;;;9.02;;
76640;SDS011;65538;50.798;6.064;2023-11-22T13:51:23;18.20;;;8.93;;
76640;SDS011;65538;50.798;6.064;2023-11-22T13:53:50;16.20;;;7.40;;
76640;SDS011;65538;50.798;6.064;2023-11-22T13:56:18;19.20;;;9.27;;
76640;SDS011;65538;50.798;6.064;2023-11-22T13:58:43;15.87;;;7.33;;
76640;SDS011;65538;50.798;6.064;2023-11-22T14:01:08;14.40;;;7.47;;
76640;SDS011;65538;50.798;6.064;2023-11-22T14:03:38;13.90;;;7.07;;
76640;SDS011;65538;50.798;6.064;2023-11-22T14:06:04;12.90;;;6.20;;
76640;SDS011;65538;50.798;6.064;2023-11-22T14:08:30;15.50;;;8.00;;
76640;SDS011;65538;50.798;6.064;2023-11-22T14:10:55;16.92;;;8.80;;
76640;SDS011;65538;50.798;6.064;2023-11-22T14:13:20;14.63;;;8.23;;
76640;SDS011;65538;50.798;6.064;2023-11-22T14:15:46;15.98;;;9.00;;
76640;SDS011;65538;50.798;6.064;2023-11-22T14:18:11;18.73;;;7.67;;
76640;SDS011;65538;50.798;6.064;2023-11-22T14:20:36;16.20;;;7.73;;
76640;SDS011;65538;50.798;6.064;2023-11-22T14:23:02;18.02;;;9.55;;
76640;SDS011;65538;50.798;6.064;2023-11-22T14:25:27;16.60;;;9.00;;
76640;SDS011;65538;50.798;6.064;2023-11-22T14:27:54;17.60;;;8.18;;
76640;SDS011;65538;50.798;6.064;2023-11-22T14:30:21;19.20;;;8.65;;
76640;SDS011;65538;50.798;6.064;2023-11-22T14:32:46;14.80;;;6.30;;
76640;SDS011;65538;50.798;6.064;2023-11-22T14:35:11;19.37;;;9.47;;
76640;SDS011;65538;50.798;6.064;2023-11-22T14:37:37;18.05;;;6.70;;
76640;SDS011;65538;50.798;6.064;2023-11-22T14:40:04;18.20;;;9.45;;
76640;SDS011;65538;50.798;6.064;2023-11-22T14:42:30;20.95;;;9.68;;
76640;SDS011;65538;50.798;6.064;2023-11-22T14:44:56;23.25;;;11.32;;